Time;durP1;ratioP1;P1;durP2;ratioP2;P2;SDS_P1;SDS_P2;PMS_P1;PMS_P2;Temp;Humidity;BMP_temperature;BMP_pressure;BME280_temperature;BME280_humidity;BME280_pressure;Samples;Min_cycle;Max_cycle;Signal;HPM_P1;HPM_P2
2023/03/14 00:00:25;;;;;;;;;;;;;;;10.94;95.11;99004.97;5051228;28;19927;-61
2023/03/14 00:02:51;;;;;;;;;;;;;;;10.89;94.98;99001.56;5048695;28;20011;-59
2023/03/14 00:05:16;;;;;;;;;;;;;;;10.83;94.72;99005.00;5048195;28;19933;-59
2023/03/14 00:07:42;;;;;;;;;;;;;;;10.80;94.11;99012.72;5048944;28;20344;-59
2023/03/14 00:10:09;;;;;;;;;;;;;;;10.79;94.36;99003.28;5045578;28;20001;-59
2023/03/14 00:12:34;;;;;;;;;;;;;;;10.76;93.86;99016.16;5043976;28;20357;-59
2023/03/14 00:15:03;;;;;;;;;;;;;;;10.74;92.87;99005.88;5048248;28;19974;-61
2023/03/14 00:17:28;;;;;;;;;;;;;;;10.72;92.95;99005.00;5045279;28;19933;-59
2023/03/14 00:19:54;;;;;;;;;;;;;;;10.70;92.61;98993.88;5045398;28;19936;-59
2023/03/14 00:22:19;;;;;;;;;;;;;;;10.70;92.36;98999.03;5047288;28;19925;-60
2023/03/14 00:24:44;;;;;;;;;;;;;;;10.69;92.03;98999.91;5047489;28;19925;-59
2023/03/14 00:27:10;;;;;;;;;;;;;;;10.66;91.59;99004.16;5046472;28;19936;-60
2023/03/14 00:29:35;;;;;;;;;;;;;;;10.63;91.29;99015.31;5047074;28;19921;-60
2023/03/14 00:32:00;;;;;;;;;;;;;;;10.61;91.39;99023.88;5044945;28;20345;-59
2023/03/14 00:34:28;;;;;;;;;;;;;;;10.60;90.02;99019.59;5047825;28;19924;-59
2023/03/14 00:36:53;;;;;;;;;;;;;;;10.59;90.01;99028.19;5046867;28;20427;-59
2023/03/14 00:39:19;;;;;;;;;;;;;;;10.59;89.87;99033.31;5046898;28;19920;-60
2023/03/14 00:41:44;;;;;;;;;;;;;;;10.55;88.88;99022.19;5044088;28;20369;-59
2023/03/14 00:44:09;;;;;;;;;;;;;;;10.56;88.78;99021.34;5044153;28;20344;-59
2023/03/14 00:46:34;;;;;;;;;;;;;;;10.54;88.76;99033.31;5047153;28;20305;-59
2023/03/14 00:49:00;;;;;;;;;;;;;;;10.54;88.34;99025.59;5046632;28;20016;-59
2023/03/14 00:51:25;;;;;;;;;;;;;;;10.52;88.29;99034.19;5047272;28;20137;-59
2023/03/14 00:53:50;;;;;;;;;;;;;;;10.51;87.71;99029.91;5047745;28;20004;-59
2023/03/14 00:56:15;;;;;;;;;;;;;;;10.51;87.44;99030.75;5046175;28;20358;-59
2023/03/14 00:58:41;;;;;;;;;;;;;;;10.51;86.75;99035.06;5046384;28;19943;-61
2023/03/14 01:01:10;;;;;;;;;;;;;;;10.50;87.12;99039.34;5047230;28;19967;-59
2023/03/14 01:03:36;;;;;;;;;;;;;;;10.50;86.78;99026.50;5048372;28;20413;-59
2023/03/14 01:06:12;;;;;;;;;;;;;;;10.47;86.75;99019.63;5045972;28;20000;-59
2023/03/14 01:08:37;;;;;;;;;;;;;;;10.47;86.71;99024.75;5044101;28;19931;-59
2023/03/14 01:11:10;;;;;;;;;;;;;;;10.43;86.02;99012.78;5046852;28;20007;-59
2023/03/14 01:13:35;;;;;;;;;;;;;;;10.43;85.98;99019.63;5046651;28;19921;-59
2023/03/14 01:16:02;;;;;;;;;;;;;;;10.40;86.14;99017.91;5047842;28;20016;-59
2023/03/14 01:18:27;;;;;;;;;;;;;;;10.42;86.43;99017.91;5045976;28;19970;-59
2023/03/14 01:20:53;;;;;;;;;;;;;;;10.40;86.92;99017.06;5045818;28;19929;-59
2023/03/14 01:23:18;;;;;;;;;;;;;;;10.39;86.99;99010.22;5046257;28;19925;-59
2023/03/14 01:25:43;;;;;;;;;;;;;;;10.36;87.19;99013.63;5050807;28;19964;-59
2023/03/14 01:28:08;;;;;;;;;;;;;;;10.36;86.87;99015.34;5049747;28;19963;-60
2023/03/14 01:30:33;;;;;;;;;;;;;;;10.32;86.07;99006.81;5051060;28;19920;-59
2023/03/14 01:32:59;;;;;;;;;;;;;;;10.32;86.04;99005.94;5050350;28;19959;-59
2023/03/14 01:35:24;;;;;;;;;;;;;;;10.33;85.95;99016.22;5047876;28;19968;-59
2023/03/14 01:37:49;;;;;;;;;;;;;;;10.31;85.71;99007.63;5049171;28;19967;-59
2023/03/14 01:40:16;;;;;;;;;;;;;;;10.32;85.71;98996.53;5050184;28;19951;-59
2023/03/14 01:42:44;;;;;;;;;;;;;;;10.32;86.05;98993.09;5050136;28;20011;-59
2023/03/14 01:45:28;;;;;;;;;;;;;;;10.32;85.88;98985.41;5049327;28;19928;-59
2023/03/14 01:47:54;;;;;;;;;;;;;;;10.32;86.55;98996.53;5046470;28;19927;-59
2023/03/14 01:50:19;;;;;;;;;;;;;;;10.29;85.60;98987.94;5050987;28;20003;-59
2023/03/14 01:52:47;;;;;;;;;;;;;;;10.27;85.34;98984.53;5051656;28;19971;-59
2023/03/14 01:55:15;;;;;;;;;;;;;;;10.26;85.62;98977.69;5049619;28;19928;-59
2023/03/14 01:57:45;;;;;;;;;;;;;;;10.27;85.93;98984.53;5053898;28;19971;-60
2023/03/14 02:00:17;;;;;;;;;;;;;;;10.26;86.17;98977.69;5047085;28;19925;-59
2023/03/14 02:02:44;;;;;;;;;;;;;;;10.23;87.74;98978.53;5051710;28;19924;-60
2023/03/14 02:05:10;;;;;;;;;;;;;;;10.19;88.82;98971.66;5052480;28;19916;-59
2023/03/14 02:07:40;;;;;;;;;;;;;;;10.12;89.29;98978.50;5052802;28;19921;-59
2023/03/14 02:10:06;;;;;;;;;;;;;;;10.07;89.42;98971.66;5052314;28;19967;-59
2023/03/14 02:12:32;;;;;;;;;;;;;;;10.05;90.05;98969.09;5049228;28;20389;-59
2023/03/14 02:14:57;;;;;;;;;;;;;;;10.04;90.33;98974.25;5050213;28;19925;-59
2023/03/14 02:17:23;;;;;;;;;;;;;;;10.02;90.71;98969.09;5052845;28;19978;-59
2023/03/14 02:20:15;;;;;;;;;;;;;;;10.02;90.99;98978.53;5047770;28;20378;-59
2023/03/14 02:22:41;;;;;;;;;;;;;;;9.99;91.06;98978.50;5042330;28;20070;-59
2023/03/14 02:25:16;;;;;;;;;;;;;;;9.97;91.59;98972.53;5048635;28;20416;-59
2023/03/14 02:27:41;;;;;;;;;;;;;;;9.94;92.55;98970.81;5049834;28;19960;-59
2023/03/14 02:30:21;;;;;;;;;;;;;;;9.93;92.44;98972.50;5049191;28;20405;-59
2023/03/14 02:32:47;;;;;;;;;;;;;;;9.92;92.04;98964.81;5042990;28;19932;-59
2023/03/14 02:35:15;;;;;;;;;;;;;;;9.91;92.17;98961.41;5031178;28;19921;-59
2023/03/14 02:38:00;;;;;;;;;;;;;;;9.90;91.42;98953.69;5049378;28;20396;-60
2023/03/14 02:40:25;;;;;;;;;;;;;;;9.89;91.11;98955.41;5046817;28;19927;-59
2023/03/14 02:42:50;;;;;;;;;;;;;;;9.92;90.88;98962.25;5053488;28;19925;-59
2023/03/14 02:45:16;;;;;;;;;;;;;;;9.91;91.14;98950.28;5053433;28;19983;-59
2023/03/14 02:47:49;;;;;;;;;;;;;;;9.93;90.74;98951.13;5047327;28;19917;-59
2023/03/14 02:50:16;;;;;;;;;;;;;;;9.95;90.90;98952.00;5053027;28;20464;-59
2023/03/14 02:52:42;;;;;;;;;;;;;;;9.97;90.85;98957.97;5049764;28;19916;-59
2023/03/14 02:55:07;;;;;;;;;;;;;;;9.98;90.62;98959.69;5051121;28;19931;-59
2023/03/14 02:57:33;;;;;;;;;;;;;;;9.99;90.70;98956.25;5052748;28;20126;-59
2023/03/14 02:59:59;;;;;;;;;;;;;;;10.01;90.71;98952.00;5052579;28;19927;-59
2023/03/14 03:02:25;;;;;;;;;;;;;;;10.02;90.66;98948.56;5051240;28;20285;-59
2023/03/14 03:04:50;;;;;;;;;;;;;;;10.03;90.33;98950.28;5054251;28;19920;-60
2023/03/14 03:07:15;;;;;;;;;;;;;;;10.03;90.38;98954.56;5052396;28;20324;-60
2023/03/14 03:09:40;;;;;;;;;;;;;;;10.03;90.17;98955.41;5053033;28;20274;-64
2023/03/14 03:12:06;;;;;;;;;;;;;;;10.05;90.54;98957.97;5045958;28;19925;-60
2023/03/14 03:14:31;;;;;;;;;;;;;;;10.01;90.43;98952.00;5051103;28;19957;-59
2023/03/14 03:16:56;;;;;;;;;;;;;;;10.02;90.17;98958.84;5034622;28;20320;-59
2023/03/14 03:19:21;;;;;;;;;;;;;;;10.02;90.11;98958.84;5048817;28;19932;-59
2023/03/14 03:21:46;;;;;;;;;;;;;;;10.03;90.24;98954.56;5051335;28;19927;-59
2023/03/14 03:24:12;;;;;;;;;;;;;;;10.03;90.18;98947.72;5049584;28;19921;-59
2023/03/14 03:26:37;;;;;;;;;;;;;;;10.03;90.27;98944.28;5049531;28;20278;-59
2023/03/14 03:29:03;;;;;;;;;;;;;;;10.03;90.20;98944.28;5054477;28;20427;-60
2023/03/14 03:31:28;;;;;;;;;;;;;;;10.02;89.96;98940.00;5050974;28;19929;-59
2023/03/14 03:33:53;;;;;;;;;;;;;;;10.02;90.22;98927.19;5047345;28;19932;-59
2023/03/14 03:36:23;;;;;;;;;;;;;;;10.02;90.10;98934.88;5045604;28;19935;-59
2023/03/14 03:38:48;;;;;;;;;;;;;;;10.01;90.47;98935.72;5049369;28;20290;-59
2023/03/14 03:41:13;;;;;;;;;;;;;;;10.01;90.11;98939.16;5048404;28;19986;-59
2023/03/14 03:43:39;;;;;;;;;;;;;;;10.01;90.03;98941.72;5049256;28;20003;-59
2023/03/14 03:46:05;;;;;;;;;;;;;;;10.01;90.38;98938.28;5048155;28;19963;-59
2023/03/14 03:48:30;;;;;;;;;;;;;;;10.01;89.80;98934.03;5048074;28;20356;-59
2023/03/14 03:50:55;;;;;;;;;;;;;;;10.00;89.82;98926.28;5047618;28;20035;-59
2023/03/14 03:53:21;;;;;;;;;;;;;;;10.01;89.60;98935.72;5044265;28;19967;-59
2023/03/14 03:55:46;;;;;;;;;;;;;;;10.00;89.85;98927.16;5039704;28;20352;-59
2023/03/14 03:58:11;;;;;;;;;;;;;;;10.00;90.04;98927.16;5029572;28;19924;-59
2023/03/14 04:00:37;;;;;;;;;;;;;;;9.99;89.83;98928.00;5043054;28;20015;-59
2023/03/14 04:03:02;;;;;;;;;;;;;;;9.98;89.75;98931.44;5048022;28;19943;-59
2023/03/14 04:05:27;;;;;;;;;;;;;;;9.97;89.40;98929.72;5047474;28;19963;-59
2023/03/14 04:07:53;;;;;;;;;;;;;;;9.97;89.29;98927.16;5048258;28;19924;-59
2023/03/14 04:10:18;;;;;;;;;;;;;;;9.97;89.32;98923.75;5047524;28;19978;-59
2023/03/14 04:12:43;;;;;;;;;;;;;;;9.96;89.89;98917.75;5047888;28;19920;-59
2023/03/14 04:15:09;;;;;;;;;;;;;;;9.92;91.14;98921.19;5045696;28;19979;-60
2023/03/14 04:17:34;;;;;;;;;;;;;;;9.89;91.70;98921.19;5049301;28;19927;-60
2023/03/14 04:19:59;;;;;;;;;;;;;;;9.88;91.71;98927.16;5049074;28;19963;-59
2023/03/14 04:22:24;;;;;;;;;;;;;;;9.83;92.22;98922.03;5051477;28;19928;-59
2023/03/14 04:24:49;;;;;;;;;;;;;;;9.82;93.03;98928.00;5050645;28;20289;-59
2023/03/14 04:27:15;;;;;;;;;;;;;;;9.78;94.04;98926.31;5046460;28;19924;-59
2023/03/14 04:29:41;;;;;;;;;;;;;;;9.77;94.06;98926.28;5051065;28;19960;-59
2023/03/14 04:32:06;;;;;;;;;;;;;;;9.74;94.61;98922.03;5049447;28;19926;-59
2023/03/14 04:34:31;;;;;;;;;;;;;;;9.71;94.37;98932.31;5046755;28;20271;-59
2023/03/14 04:36:57;;;;;;;;;;;;;;;9.69;95.11;98918.59;5051461;28;19935;-60
2023/03/14 04:39:22;;;;;;;;;;;;;;;9.68;95.27;98922.88;5046065;28;20385;-60
2023/03/14 04:41:47;;;;;;;;;;;;;;;9.68;95.52;98916.91;5045831;28;19943;-59
2023/03/14 04:44:12;;;;;;;;;;;;;;;9.67;95.71;98922.88;5050544;28;19924;-59
2023/03/14 04:46:38;;;;;;;;;;;;;;;9.64;95.84;98921.16;5051772;28;20330;-59
2023/03/14 04:49:03;;;;;;;;;;;;;;;9.64;96.43;98916.03;5050502;28;20369;-59
2023/03/14 04:51:28;;;;;;;;;;;;;;;9.64;96.09;98921.16;5046649;28;19993;-59
2023/03/14 04:53:54;;;;;;;;;;;;;;;9.64;97.05;98912.59;5047162;28;20015;-59
2023/03/14 04:56:19;;;;;;;;;;;;;;;9.60;99.65;98914.31;5051968;28;20019;-59
2023/03/14 04:58:45;;;;;;;;;;;;;;;9.56;99.90;98911.75;5055199;28;19931;-59
2023/03/14 05:01:10;;;;;;;;;;;;;;;9.53;99.92;98914.31;5056808;28;19920;-61
2023/03/14 05:03:37;;;;;;;;;;;;;;;9.53;100.00;98911.75;5051750;28;19921;-59
2023/03/14 05:06:03;;;;;;;;;;;;;;;9.47;100.00;98902.34;5051905;28;19923;-59
2023/03/14 05:08:28;;;;;;;;;;;;;;;9.38;100.00;98904.88;5050684;28;19916;-59
2023/03/14 05:10:54;;;;;;;;;;;;;;;9.29;100.00;98908.31;5055509;28;19925;-59
2023/03/14 05:13:19;;;;;;;;;;;;;;;9.23;100.00;98902.31;5052854;28;20593;-59
2023/03/14 05:15:45;;;;;;;;;;;;;;;9.16;100.00;98905.69;5050498;28;20030;-59
2023/03/14 05:18:10;;;;;;;;;;;;;;;9.11;100.00;98914.25;5048102;28;20289;-59
2023/03/14 05:20:35;;;;;;;;;;;;;;;9.03;100.00;98910.78;5052429;28;19920;-59
2023/03/14 05:23:00;;;;;;;;;;;;;;;9.00;100.00;98907.38;5049393;28;19920;-60
2023/03/14 05:25:26;;;;;;;;;;;;;;;8.96;100.00;98914.19;5050947;28;20013;-60
2023/03/14 05:27:53;;;;;;;;;;;;;;;8.95;100.00;98915.03;5049791;28;19928;-59
2023/03/14 05:30:18;;;;;;;;;;;;;;;8.95;100.00;98906.50;5047918;28;19921;-59
2023/03/14 05:32:43;;;;;;;;;;;;;;;8.95;100.00;98912.47;5050090;28;19933;-59
2023/03/14 05:35:08;;;;;;;;;;;;;;;8.95;100.00;98906.50;5050564;28;19975;-59
2023/03/14 05:37:34;;;;;;;;;;;;;;;8.94;100.00;98905.66;5049879;28;19921;-59
2023/03/14 05:39:59;;;;;;;;;;;;;;;8.95;100.00;98899.66;5049791;28;20033;-59
2023/03/14 05:42:24;;;;;;;;;;;;;;;8.96;100.00;98892.81;5049563;28;19924;-60
2023/03/14 05:44:50;;;;;;;;;;;;;;;8.95;100.00;98886.00;5048058;28;19927;-60
2023/03/14 05:47:15;;;;;;;;;;;;;;;8.96;100.00;98888.56;5049993;28;20447;-59
2023/03/14 05:49:40;;;;;;;;;;;;;;;8.94;100.00;98880.00;5047141;28;19951;-59
2023/03/14 05:52:06;;;;;;;;;;;;;;;8.93;100.00;98883.44;5051448;28;19959;-59
2023/03/14 05:54:31;;;;;;;;;;;;;;;8.94;100.00;98874.03;5047596;28;19916;-60
2023/03/14 05:56:56;;;;;;;;;;;;;;;8.94;100.00;98879.16;5053042;28;19959;-60
2023/03/14 05:59:21;;;;;;;;;;;;;;;8.95;100.00;98873.19;5057958;28;19932;-59
2023/03/14 06:01:47;;;;;;;;;;;;;;;8.97;100.00;98868.91;5051160;28;19932;-59
2023/03/14 06:04:13;;;;;;;;;;;;;;;8.98;100.00;98860.34;5050868;28;19925;-59
2023/03/14 06:06:38;;;;;;;;;;;;;;;8.98;100.00;98856.09;5045009;28;20437;-59
2023/03/14 06:09:04;;;;;;;;;;;;;;;9.00;100.00;98874.91;5042943;28;20097;-60
2023/03/14 06:11:29;;;;;;;;;;;;;;;9.02;100.00;98872.34;5040283;28;20573;-59
2023/03/14 06:13:54;;;;;;;;;;;;;;;9.03;100.00;98877.47;5042653;28;19959;-59
2023/03/14 06:16:19;;;;;;;;;;;;;;;9.04;100.00;98881.75;5047519;28;19962;-59
2023/03/14 06:18:46;;;;;;;;;;;;;;;9.05;100.00;98885.16;5044759;28;19932;-59
2023/03/14 06:21:12;;;;;;;;;;;;;;;9.05;100.00;98885.16;5047038;28;19927;-59
2023/03/14 06:23:37;;;;;;;;;;;;;;;9.06;100.00;98874.06;5048062;28;19917;-59
2023/03/14 06:26:02;;;;;;;;;;;;;;;9.08;100.00;98878.31;5046363;28;19956;-59
2023/03/14 06:28:27;;;;;;;;;;;;;;;9.06;100.00;98876.63;5039764;28;19933;-59
2023/03/14 06:30:53;;;;;;;;;;;;;;;9.07;100.00;98881.75;5047096;28;19947;-59
2023/03/14 06:33:18;;;;;;;;;;;;;;;9.10;100.00;98879.22;5044129;28;20304;-58
2023/03/14 06:35:44;;;;;;;;;;;;;;;9.11;100.00;98891.16;5044201;28;20301;-61
2023/03/14 06:38:09;;;;;;;;;;;;;;;9.11;100.00;98888.59;5044645;28;19929;-59
2023/03/14 06:40:34;;;;;;;;;;;;;;;9.12;100.00;98895.44;5045171;28;19925;-62
2023/03/14 06:42:59;;;;;;;;;;;;;;;9.14;100.00;98896.28;5041822;28;19936;-61
2023/03/14 06:45:25;;;;;;;;;;;;;;;9.16;100.00;98898.00;5044680;28;19937;-59
2023/03/14 06:47:50;;;;;;;;;;;;;;;9.20;100.00;98902.28;5045708;28;19921;-59
2023/03/14 06:50:15;;;;;;;;;;;;;;;9.25;100.00;98900.59;5044037;28;19921;-59
2023/03/14 06:52:45;;;;;;;;;;;;;;;9.28;100.00;98895.44;5044009;28;19967;-59
2023/03/14 06:55:11;;;;;;;;;;;;;;;9.30;100.00;98894.63;5027262;28;19931;-60
2023/03/14 06:57:36;;;;;;;;;;;;;;;9.33;100.00;98898.88;5043256;28;20015;-62
2023/03/14 07:00:02;;;;;;;;;;;;;;;9.35;100.00;98900.63;5045178;28;19920;-59
2023/03/14 07:02:27;;;;;;;;;;;;;;;9.38;100.00;98907.44;5043916;28;20016;-62
2023/03/14 07:04:52;;;;;;;;;;;;;;;9.39;100.00;98904.88;5027771;28;19924;-59
2023/03/14 07:07:17;;;;;;;;;;;;;;;9.42;100.00;98906.63;5044425;28;19933;-59
2023/03/14 07:09:43;;;;;;;;;;;;;;;9.44;100.00;98912.59;5044423;28;20325;-59
2023/03/14 07:12:08;;;;;;;;;;;;;;;9.43;100.00;98907.47;5049787;28;19939;-59
2023/03/14 07:14:33;;;;;;;;;;;;;;;9.44;100.00;98915.16;5039571;28;19925;-59
2023/03/14 07:16:58;;;;;;;;;;;;;;;9.43;100.00;98915.16;5039460;28;19920;-59
2023/03/14 07:19:24;;;;;;;;;;;;;;;9.42;100.00;98980.16;5043763;28;19920;-60
2023/03/14 07:21:49;;;;;;;;;;;;;;;9.40;100.00;99008.34;5043014;28;20023;-59
2023/03/14 07:24:14;;;;;;;;;;;;;;;9.25;100.00;99014.28;5042269;28;19928;-59
2023/03/14 07:26:39;;;;;;;;;;;;;;;9.04;100.00;99033.03;5047875;28;19921;-59
2023/03/14 07:29:05;;;;;;;;;;;;;;;8.82;100.00;99037.16;5043970;28;20028;-59
2023/03/14 07:31:30;;;;;;;;;;;;;;;8.63;100.00;99054.97;5043913;28;20427;-59
2023/03/14 07:33:56;;;;;;;;;;;;;;;8.47;100.00;99056.56;5048876;28;20309;-59
2023/03/14 07:36:21;;;;;;;;;;;;;;;8.37;100.00;99070.97;5047799;28;19967;-59
2023/03/14 07:38:46;;;;;;;;;;;;;;;8.33;100.00;99072.66;5047627;28;19924;-60
2023/03/14 07:41:12;;;;;;;;;;;;;;;8.28;100.00;99081.13;5047641;28;19917;-61
2023/03/14 07:43:37;;;;;;;;;;;;;;;8.22;100.00;99097.28;5046883;28;19944;-59
2023/03/14 07:46:02;;;;;;;;;;;;;;;8.18;100.00;99107.50;5045605;28;19925;-59
2023/03/14 07:48:28;;;;;;;;;;;;;;;8.10;100.00;99111.69;5048977;28;19924;-59
2023/03/14 07:50:54;;;;;;;;;;;;;;;8.05;100.00;99114.19;5047719;28;19921;-59
2023/03/14 07:53:19;;;;;;;;;;;;;;;8.01;100.00;99118.44;5046639;28;19916;-61
2023/03/14 07:55:45;;;;;;;;;;;;;;;8.02;100.00;99129.53;5049768;28;19982;-59
2023/03/14 07:58:10;;;;;;;;;;;;;;;7.98;100.00;99138.88;5055853;28;19974;-59
2023/03/14 08:00:35;;;;;;;;;;;;;;;8.00;100.00;99146.56;5029778;28;19978;-63
2023/03/14 08:03:00;;;;;;;;;;;;;;;8.00;100.00;99155.09;5052735;28;20638;-59
2023/03/14 08:05:26;;;;;;;;;;;;;;;7.97;100.00;99152.50;5046487;28;19935;-60
2023/03/14 08:07:51;;;;;;;;;;;;;;;7.96;100.00;99165.31;5056222;28;19927;-60
2023/03/14 08:10:22;;;;;;;;;;;;;;;7.95;100.00;99179.81;5049765;28;19938;-60
2023/03/14 08:12:53;;;;;;;;;;;;;;;7.93;100.00;99189.13;5048611;28;19943;-60
2023/03/14 08:15:18;;;;;;;;;;;;;;;7.91;100.00;99188.28;5044157;28;19921;-60
2023/03/14 08:17:43;;;;;;;;;;;;;;;7.90;100.00;99196.78;5048892;28;19994;-60
2023/03/14 08:20:11;;;;;;;;;;;;;;;7.90;100.00;99209.59;5053801;28;19925;-60
2023/03/14 08:22:36;;;;;;;;;;;;;;;7.95;100.00;99230.13;5042962;28;19916;-62
2023/03/14 08:25:02;;;;;;;;;;;;;;;7.99;100.00;99232.72;5047865;28;19932;-59
2023/03/14 08:27:27;;;;;;;;;;;;;;;8.06;100.00;99244.75;5041436;28;19917;-60
2023/03/14 08:29:52;;;;;;;;;;;;;;;8.08;100.00;99247.34;5047293;28;19917;-60
2023/03/14 08:32:19;;;;;;;;;;;;;;;8.08;100.00;99255.03;5049201;28;19935;-60
2023/03/14 08:34:45;;;;;;;;;;;;;;;8.07;100.00;99266.13;5055667;28;19959;-60
2023/03/14 08:37:10;;;;;;;;;;;;;;;8.11;100.00;99274.69;5049110;28;19920;-60
2023/03/14 08:39:35;;;;;;;;;;;;;;;8.17;100.00;99282.44;5054244;28;19921;-60
2023/03/14 08:42:01;;;;;;;;;;;;;;;8.24;100.00;99289.34;5035845;28;20019;-60
2023/03/14 08:44:26;;;;;;;;;;;;;;;8.27;100.00;99292.81;5056778;28;19929;-61
2023/03/14 08:46:51;;;;;;;;;;;;;;;8.28;100.00;99301.34;5048476;28;20008;-60
2023/03/14 08:49:16;;;;;;;;;;;;;;;8.27;100.00;99308.19;5040067;28;19971;-60
2023/03/14 08:51:41;;;;;;;;;;;;;;;8.26;100.00;99309.03;5046305;28;19920;-60
2023/03/14 08:54:09;;;;;;;;;;;;;;;8.23;100.00;99331.16;5032827;28;19930;-60
2023/03/14 08:56:37;;;;;;;;;;;;;;;8.22;100.00;99334.56;5050810;28;20356;-60
2023/03/14 08:59:02;;;;;;;;;;;;;;;8.21;100.00;99343.94;5054614;28;19927;-60
2023/03/14 09:01:28;;;;;;;;;;;;;;;8.20;100.00;99352.47;5046955;28;19921;-60
2023/03/14 09:03:53;;;;;;;;;;;;;;;8.18;100.00;99354.13;5049035;28;20019;-60
2023/03/14 09:06:18;;;;;;;;;;;;;;;8.12;100.00;99371.13;5051664;28;19939;-60
2023/03/14 09:08:44;;;;;;;;;;;;;;;8.05;100.00;99380.41;5053180;28;19924;-60
2023/03/14 09:11:09;;;;;;;;;;;;;;;7.98;100.00;99402.50;5054165;28;20007;-58
2023/03/14 09:13:35;;;;;;;;;;;;;;;7.85;100.00;99408.28;5049205;28;19963;-60
2023/03/14 09:16:00;;;;;;;;;;;;;;;7.76;100.00;99424.31;5050309;28;19924;-60
2023/03/14 09:18:25;;;;;;;;;;;;;;;7.69;100.00;99427.63;5040600;28;19952;-60
2023/03/14 09:20:51;;;;;;;;;;;;;;;7.66;100.00;99442.09;5049845;28;20778;-60
2023/03/14 09:23:16;;;;;;;;;;;;;;;7.63;100.00;99447.13;5051412;28;19921;-60
2023/03/14 09:25:41;;;;;;;;;;;;;;;7.56;100.00;99456.41;5049006;28;19920;-62
2023/03/14 09:28:07;;;;;;;;;;;;;;;7.50;100.00;99475.06;5034310;28;19928;-60
2023/03/14 09:30:32;;;;;;;;;;;;;;;7.44;100.00;99497.09;5050604;28;20313;-60
2023/03/14 09:32:58;;;;;;;;;;;;;;;7.30;100.00;99504.53;5050189;28;20395;-61
2023/03/14 09:35:24;;;;;;;;;;;;;;;7.24;100.00;99520.59;5046521;28;19924;-60
2023/03/14 09:37:49;;;;;;;;;;;;;;;7.20;100.00;99525.63;5050255;28;19928;-59
2023/03/14 09:40:19;;;;;;;;;;;;;;;7.18;100.00;99542.63;5032761;28;20377;-60
2023/03/14 09:42:45;;;;;;;;;;;;;;;7.15;100.00;99556.19;5046655;28;20349;-60
2023/03/14 09:45:14;;;;;;;;;;;;;;;7.11;100.00;99556.13;5048620;28;20015;-60
2023/03/14 09:47:40;;;;;;;;;;;;;;;7.06;100.00;99571.34;5045694;28;19921;-60
2023/03/14 09:50:09;;;;;;;;;;;;;;;7.13;100.00;99590.22;5047315;28;19928;-60
2023/03/14 09:52:39;;;;;;;;;;;;;;;7.39;98.51;99593.31;5051621;28;19934;-61
2023/03/14 09:55:30;;;;;;;;;;;;;;;7.70;98.56;99602.47;5050136;28;19920;-60
2023/03/14 09:57:57;;;;;;;;;;;;;;;8.06;96.65;99615.94;5041012;28;19921;-61
2023/03/14 10:00:25;;;;;;;;;;;;;;;8.38;94.23;99620.84;5047942;28;19917;-61
2023/03/14 10:02:53;;;;;;;;;;;;;;;8.64;95.26;99626.38;5051721;28;19929;-60
2023/03/14 10:05:20;;;;;;;;;;;;;;;8.77;92.83;99646.22;5045862;28;19920;-60
2023/03/14 10:07:45;;;;;;;;;;;;;;;8.81;90.67;99648.00;5049198;28;19961;-61
2023/03/14 10:10:12;;;;;;;;;;;;;;;8.72;88.68;99665.78;5030835;28;20307;-59
2023/03/14 10:12:41;;;;;;;;;;;;;;;8.58;88.89;99680.09;5049634;28;19928;-60
2023/03/14 10:15:08;;;;;;;;;;;;;;;8.41;89.14;99691.72;5049475;28;20305;-60
2023/03/14 10:17:41;;;;;;;;;;;;;;;8.31;88.65;99708.59;5046107;28;20396;-61
2023/03/14 10:20:10;;;;;;;;;;;;;;;8.16;87.43;99724.53;5045579;28;19928;-60
2023/03/14 10:22:35;;;;;;;;;;;;;;;8.02;88.44;99731.09;5044803;28;19955;-60
2023/03/14 10:25:02;;;;;;;;;;;;;;;7.92;87.57;99747.94;5042665;28;19925;-60
2023/03/14 10:27:32;;;;;;;;;;;;;;;7.82;87.12;99760.50;5050807;28;19917;-60
2023/03/14 10:29:59;;;;;;;;;;;;;;;7.71;88.23;99773.09;5046934;28;19932;-60
2023/03/14 10:32:28;;;;;;;;;;;;;;;7.66;88.46;99778.09;5053191;28;19966;-60
2023/03/14 10:35:05;;;;;;;;;;;;;;;7.61;89.35;99796.75;5048585;28;20527;-60
2023/03/14 10:37:30;;;;;;;;;;;;;;;7.62;89.43;99796.75;5050915;28;19962;-60
2023/03/14 10:40:05;;;;;;;;;;;;;;;7.64;89.63;99802.78;5050998;28;20713;-60
2023/03/14 10:42:31;;;;;;;;;;;;;;;7.62;90.55;99808.69;5051742;28;19916;-61
2023/03/14 10:45:22;;;;;;;;;;;;;;;7.66;90.54;99815.63;5036443;28;19928;-60
2023/03/14 10:47:50;;;;;;;;;;;;;;;7.74;89.15;99826.88;4985632;28;1797261;-60
2023/03/14 10:50:34;;;;;;;;;;;;;;;7.92;87.63;99842.66;5044420;28;20022;-60
2023/03/14 10:53:05;;;;;;;;;;;;;;;8.09;86.23;99850.72;5049122;28;19920;-60
2023/03/14 10:55:44;;;;;;;;;;;;;;;8.11;84.53;99860.97;5029259;28;19927;-60
2023/03/14 10:58:27;;;;;;;;;;;;;;;8.09;84.85;99868.63;5047990;28;20280;-60
2023/03/14 11:00:58;;;;;;;;;;;;;;;8.17;84.11;99882.47;5046328;28;20401;-60
2023/03/14 11:03:25;;;;;;;;;;;;;;;8.32;82.16;99894.75;5044624;28;20187;-60
2023/03/14 11:05:53;;;;;;;;;;;;;;;8.41;83.27;99897.53;5048698;28;19917;-60
2023/03/14 11:08:41;;;;;;;;;;;;;;;8.52;82.39;99901.19;5044260;28;19925;-60
2023/03/14 11:11:16;;;;;;;;;;;;;;;8.54;83.82;99914.88;5050092;28;19917;-60
2023/03/14 11:13:47;;;;;;;;;;;;;;;8.50;82.90;99928.47;5046123;28;20284;-60
2023/03/14 11:16:25;;;;;;;;;;;;;;;8.33;82.82;99933.19;5045267;28;20324;-61
2023/03/14 11:18:56;;;;;;;;;;;;;;;8.23;83.68;99954.31;5049099;28;20434;-60
2023/03/14 11:21:26;;;;;;;;;;;;;;;8.05;83.34;99970.09;5049320;28;19917;-60
2023/03/14 11:24:02;;;;;;;;;;;;;;;7.89;83.93;99993.63;5044681;28;21371;-60
2023/03/14 11:26:33;;;;;;;;;;;;;;;7.70;84.33;100001.63;5043860;28;22089;-63
2023/03/14 11:29:06;;;;;;;;;;;;;;;7.53;83.83;99999.53;5044228;28;19924;-62
2023/03/14 11:31:35;;;;;;;;;;;;;;;7.44;84.89;100004.38;5044121;28;19924;-60
2023/03/14 11:34:15;;;;;;;;;;;;;;;7.32;85.81;100019.41;5050288;28;20338;-59
2023/03/14 11:36:59;;;;;;;;;;;;;;;7.30;85.70;100021.06;5050011;28;20392;-61
2023/03/14 11:39:25;;;;;;;;;;;;;;;7.30;86.07;100027.88;5044375;28;19923;-60
2023/03/14 11:41:52;;;;;;;;;;;;;;;7.30;86.92;100027.88;5054445;28;20352;-60
2023/03/14 11:44:19;;;;;;;;;;;;;;;7.36;86.70;100041.69;5044994;28;19924;-59
2023/03/14 11:46:51;;;;;;;;;;;;;;;7.51;87.67;100036.09;5050328;28;20758;-60
2023/03/14 11:49:27;;;;;;;;;;;;;;;7.77;86.79;100044.50;5053648;28;19920;-60
2023/03/14 11:51:56;;;;;;;;;;;;;;;8.17;86.24;100043.78;5050363;28;19921;-61
2023/03/14 11:54:36;;;;;;;;;;;;;;;8.30;83.65;100053.50;5051545;28;19972;-61
2023/03/14 11:57:09;;;;;;;;;;;;;;;8.23;83.42;100071.25;5052100;28;19975;-61
2023/03/14 11:59:45;;;;;;;;;;;;;;;8.10;82.72;100102.50;5045255;28;20420;-60
2023/03/14 12:02:17;;;;;;;;;;;;;;;7.87;83.85;100112.13;5051945;28;19921;-61
2023/03/14 12:05:17;;;;;;;;;;;;;;;7.69;84.33;100112.50;5052629;28;20413;-61
2023/03/14 12:08:01;;;;;;;;;;;;;;;7.54;85.19;100110.41;5047625;28;19991;-61
2023/03/14 12:10:27;;;;;;;;;;;;;;;7.50;85.59;100116.25;5050706;28;19923;-60
2023/03/14 12:12:52;;;;;;;;;;;;;;;7.51;85.79;100121.38;5049623;28;19965;-60
2023/03/14 12:15:22;;;;;;;;;;;;;;;7.59;84.78;100120.75;5052992;28;19935;-61
2023/03/14 12:17:53;;;;;;;;;;;;;;;7.73;84.72;100127.97;5046875;28;19917;-60
2023/03/14 12:20:23;;;;;;;;;;;;;;;7.89;83.49;100138.66;5050200;28;19931;-61
2023/03/14 12:23:02;;;;;;;;;;;;;;;8.05;82.93;100139.09;5043621;28;19917;-60
2023/03/14 12:25:29;;;;;;;;;;;;;;;8.36;81.23;100144.16;5053249;28;20011;-61
2023/03/14 12:27:55;;;;;;;;;;;;;;;8.59;78.39;100145.63;5045535;28;19925;-66
2023/03/14 12:30:40;;;;;;;;;;;;;;;8.75;78.19;100149.44;5049833;28;19924;-60
2023/03/14 12:33:11;;;;;;;;;;;;;;;8.92;77.21;100153.25;5048595;28;20011;-61
2023/03/14 12:35:56;;;;;;;;;;;;;;;9.12;76.38;100161.41;5049956;28;20259;-60
2023/03/14 12:38:28;;;;;;;;;;;;;;;9.34;74.58;100162.72;5046742;28;19928;-61
2023/03/14 12:41:03;;;;;;;;;;;;;;;9.67;70.11;100154.88;5030234;28;19925;-61
2023/03/14 12:43:33;;;;;;;;;;;;;;;9.72;71.05;100171.25;5047425;28;19924;-61
2023/03/14 12:46:16;;;;;;;;;;;;;;;9.92;72.19;100166.50;5053737;28;20363;-63
2023/03/14 12:48:43;;;;;;;;;;;;;;;10.32;70.48;100170.72;5049758;28;20805;-61
2023/03/14 12:51:12;;;;;;;;;;;;;;;10.56;68.61;100175.44;5053308;28;19917;-60